Latest Weather Forecast - Friday 30th July 2021 (6 pm)

Forecast Period: 

6 pm 30th July 2021 to 6 am  31st July 2021 

Synopsis:

A tropical wave is affecting the islands

Forecast:

Partly cloudy and hazy at first; becoming mostly cloudy with showers, some of which may be heavy with isolated thunderstorms

Weather Advisory/Warning:

Residents and motorists in areas prone to flooding and landslides or near rivers and streams should remain alert

Winds:

 E to ENE at 20 – 35 km/h (12 – 22 mph)

Sea Conditions:

Slight to moderate in open water; swells (1.0 – 2.0 m)

Marine Advisory/Warning:

None
Upcoming Tides:
 High: 11:16 pm(30th)  **** 12:15 pm
 Low:

****

05:30 pm

 07:58 pm

Aviation WX

[Source: ADDS]
METAR
TVSA 271300Z 09008KT 040V160 9999 TS SCT012CB BKN016 BKN070 26/25 Q1015 TEMPO SHRA =
TVSA 271100Z 2712/2812 11004KT 9999 FEW012CB SCT016 TEMPO 2712/2715 5000 TSRA SCT012CB BKN014
TAF
TVSA 271100Z 2712/2812 11004KT 9999 FEW012CB SCT016 TEMPO 2712/2715 5000 TSRA SCT012CB BKN014 =
SR / SS: 09:53 / 21:57 UTC (Sunrise Sunset 2021-09-27)